Time;durP1;ratioP1;P1;durP2;ratioP2;P2;SDS_P1;SDS_P2;PMS_P1;PMS_P2;Temp;Humidity;BMP_temperature;BMP_pressure;BME280_temperature;BME280_humidity;BME280_pressure;Samples;Min_cycle;Max_cycle;Signal;HPM_P1;HPM_P2
2021/10/11 00:00:01;;;;;;;36.08;21.05;;;;;;;3.14;74.03;102213.35;1695920;83;22576;-79
2021/10/11 00:02:28;;;;;;;32.33;19.23;;;;;;;3.12;74.10;102212.33;1695832;84;21124;-79
2021/10/11 00:04:54;;;;;;;30.92;19.85;;;;;;;3.12;74.17;102213.63;1696127;84;21093;-79
2021/10/11 00:07:21;;;;;;;30.55;19.07;;;;;;;3.11;74.23;102210.50;1695922;83;21097;-79
2021/10/11 00:09:48;;;;;;;31.07;18.90;;;;;;;3.10;74.27;102203.09;1695962;84;21129;-79
2021/10/11 00:12:14;;;;;;;29.70;18.70;;;;;;;3.09;74.28;102199.96;1696066;83;21397;-79
2021/10/11 00:14:41;;;;;;;28.80;18.15;;;;;;;3.07;74.20;102201.54;1695855;83;21094;-79
2021/10/11 00:17:11;;;;;;;32.28;19.45;;;;;;;3.05;74.29;102204.82;1701746;83;21088;-79
2021/10/11 00:19:37;;;;;;;37.30;23.18;;;;;;;3.05;74.40;102210.02;1703470;83;21575;-79
2021/10/11 00:22:04;;;;;;;46.60;24.65;;;;;;;3.03;74.38;102217.70;1703820;83;21090;-79
2021/10/11 00:24:31;;;;;;;38.25;23.55;;;;;;;3.01;74.38;102211.47;1703644;83;21838;-79
2021/10/11 00:26:58;;;;;;;40.88;25.05;;;;;;;2.96;74.36;102206.30;1703826;84;21108;-79
2021/10/11 00:29:25;;;;;;;37.35;24.27;;;;;;;2.91;74.41;102195.54;1703768;83;21077;-78
2021/10/11 00:31:51;;;;;;;37.20;23.73;;;;;;;2.88;74.50;102195.69;1703774;84;21567;-78
2021/10/11 00:34:18;;;;;;;35.63;23.10;;;;;;;2.86;74.60;102189.46;1703731;83;21079;-79
2021/10/11 00:36:45;;;;;;;36.68;22.32;;;;;;;2.82;74.65;102180.51;1703801;83;21642;-79
2021/10/11 00:39:12;;;;;;;35.45;21.62;;;;;;;2.81;74.79;102180.38;1703724;83;21085;-79
2021/10/11 00:41:38;;;;;;;37.67;22.45;;;;;;;2.82;74.86;102175.30;1703784;84;21125;-79
2021/10/11 00:44:05;;;;;;;35.40;21.10;;;;;;;2.82;74.94;102170.11;1703608;83;21084;-79
2021/10/11 00:46:32;;;;;;;32.78;20.75;;;;;;;2.84;75.02;102162.03;1673655;84;21101;-79
2021/10/11 00:48:59;;;;;;;33.25;20.55;;;;;;;2.88;75.06;102164.48;1703732;84;21813;-79
2021/10/11 00:51:26;;;;;;;30.10;19.37;;;;;;;2.90;75.14;102166.41;1703493;84;21105;-79
2021/10/11 00:53:52;;;;;;;32.78;19.98;;;;;;;2.93;75.22;102161.86;1703561;83;21117;-79
2021/10/11 00:56:19;;;;;;;32.13;20.00;;;;;;;2.99;75.30;102161.03;1703554;83;21153;-79
2021/10/11 00:58:49;;;;;;;32.85;19.70;;;;;;;3.04;75.37;102154.50;1703689;83;21108;-79
2021/10/11 01:01:17;;;;;;;31.85;19.10;;;;;;;3.13;75.42;102149.08;1703467;83;21875;-79
2021/10/11 01:03:44;;;;;;;30.97;19.07;;;;;;;3.22;75.37;102145.89;1703567;83;21085;-79
2021/10/11 01:06:11;;;;;;;32.90;19.77;;;;;;;3.26;75.30;102144.03;1703730;83;21081;-79
2021/10/11 01:08:41;;;;;;;31.37;20.02;;;;;;;3.30;75.20;102134.77;1673676;84;21404;-79
2021/10/11 01:11:09;;;;;;;32.60;19.77;;;;;;;3.32;75.12;102130.58;1703759;83;21066;-79
2021/10/11 01:13:35;;;;;;;32.85;19.52;;;;;;;3.33;75.06;102123.70;1703672;83;21853;-79
2021/10/11 01:16:04;;;;;;;30.37;19.80;;;;;;;3.33;74.95;102115.89;1684787;84;21536;-80
2021/10/11 01:18:31;;;;;;;29.67;19.42;;;;;;;3.29;74.84;102115.65;1695967;84;21129;-80
2021/10/11 01:20:58;;;;;;;28.27;19.15;;;;;;;3.27;74.83;102121.54;1695984;84;21106;-79
2021/10/11 01:23:26;;;;;;;31.82;19.25;;;;;;;3.24;74.85;102126.09;1695798;83;21100;-79
2021/10/11 01:25:53;;;;;;;33.20;20.55;;;;;;;3.22;74.89;102119.87;1695895;83;21788;-79
2021/10/11 01:28:20;;;;;;;31.68;20.62;;;;;;;3.21;74.93;102119.38;1695734;84;21129;-79
2021/10/11 01:30:47;;;;;;;29.98;19.25;;;;;;;3.18;74.86;102106.12;1695910;84;21622;-79
2021/10/11 01:33:14;;;;;;;29.87;18.65;;;;;;;3.14;74.84;102104.08;1695839;84;21077;-79
2021/10/11 01:35:41;;;;;;;28.85;19.50;;;;;;;3.11;74.87;102102.53;1695908;83;21105;-79
2021/10/11 01:38:13;;;;;;;28.62;18.27;;;;;;;3.07;74.86;102100.08;1695726;83;22536;-79
2021/10/11 01:40:40;;;;;;;36.80;19.27;;;;;;;3.04;74.85;102095.03;1695639;84;21149;-79
2021/10/11 01:43:08;;;;;;;30.45;18.70;;;;;;;3.03;74.92;102093.24;1695853;83;21078;-79
2021/10/11 01:45:36;;;;;;;30.60;19.40;;;;;;;3.02;75.03;102095.31;1695835;84;21221;-79
2021/10/11 01:48:05;;;;;;;31.10;18.75;;;;;;;3.00;74.98;102091.29;1695607;84;21046;-79
2021/10/11 01:50:33;;;;;;;30.08;19.52;;;;;;;3.00;74.96;102089.09;1695865;83;21781;-78
2021/10/11 01:53:00;;;;;;;31.20;19.52;;;;;;;3.00;75.07;102085.19;1695880;83;21160;-78
2021/10/11 01:55:27;;;;;;;31.87;20.50;;;;;;;3.02;75.16;102082.31;1695802;84;21170;-78
2021/10/11 01:57:56;;;;;;;33.23;20.72;;;;;;;3.03;75.31;102073.33;1696016;84;21101;-78
2021/10/11 02:00:23;;;;;;;33.08;20.25;;;;;;;3.09;75.42;102067.28;1695862;83;21070;-78
2021/10/11 02:02:50;;;;;;;30.88;19.20;;;;;;;3.15;75.37;102062.94;1695870;83;21760;-79
2021/10/11 02:05:17;;;;;;;34.05;19.60;;;;;;;3.18;75.34;102055.78;1695688;84;21090;-79
2021/10/11 02:07:44;;;;;;;31.12;19.60;;;;;;;3.19;75.33;102049.41;1695750;84;21161;-79
2021/10/11 02:10:11;;;;;;;31.68;18.98;;;;;;;3.22;75.33;102048.31;1695793;83;21040;-79
2021/10/11 02:12:37;;;;;;;30.43;20.08;;;;;;;3.25;75.41;102048.55;1695898;83;21066;-79
2021/10/11 02:15:06;;;;;;;36.15;20.23;;;;;;;3.31;75.42;102045.51;1696097;84;22004;-78
2021/10/11 02:17:32;;;;;;;28.25;19.57;;;;;;;3.36;75.44;102048.06;1695629;82;21558;-78
2021/10/11 02:19:59;;;;;;;29.70;19.25;;;;;;;3.39;75.45;102040.47;1695757;83;21081;-79
2021/10/11 02:22:26;;;;;;;30.32;19.07;;;;;;;3.42;75.34;102038.51;1695935;83;21113;-79
2021/10/11 02:24:53;;;;;;;27.13;18.77;;;;;;;3.42;75.31;102036.80;1695800;84;21071;-78
2021/10/11 02:27:20;;;;;;;31.02;19.45;;;;;;;3.44;75.27;102035.22;1695972;83;21952;-79
2021/10/11 02:29:46;;;;;;;29.67;18.65;;;;;;;3.44;75.26;102026.52;1683471;85;21079;-79
2021/10/11 02:32:13;;;;;;;28.85;18.95;;;;;;;3.44;75.20;102022.61;1670063;85;21109;-78
2021/10/11 02:34:40;;;;;;;30.27;18.65;;;;;;;3.44;75.24;102010.48;1695976;83;21089;-79
2021/10/11 02:37:07;;;;;;;26.60;17.98;;;;;;;3.42;75.23;102005.56;1695966;84;21135;-79
2021/10/11 02:39:34;;;;;;;27.07;18.35;;;;;;;3.42;75.24;102000.77;1696107;84;21769;-79
2021/10/11 02:42:01;;;;;;;32.98;19.73;;;;;;;3.42;75.28;101992.95;1695719;84;21058;-79
2021/10/11 02:44:27;;;;;;;29.35;18.62;;;;;;;3.41;75.28;101992.03;1696102;83;21611;-79
2021/10/11 02:46:54;;;;;;;26.42;18.98;;;;;;;3.40;75.25;101984.14;1696094;84;21577;-79
2021/10/11 02:49:21;;;;;;;28.90;18.57;;;;;;;3.38;75.27;101993.50;1696148;83;21066;-79
2021/10/11 02:51:47;;;;;;;31.65;18.85;;;;;;;3.34;75.24;101994.07;1696190;83;21867;-79
2021/10/11 02:54:17;;;;;;;32.30;19.17;;;;;;;3.29;75.22;101990.73;1696081;83;21183;-79
2021/10/11 02:56:46;;;;;;;31.93;18.20;;;;;;;3.25;75.23;101982.61;1696129;83;21559;-79
2021/10/11 02:59:13;;;;;;;30.82;19.62;;;;;;;3.22;75.26;101985.86;1696065;84;21062;-79
2021/10/11 03:01:40;;;;;;;30.40;19.42;;;;;;;3.20;75.33;101981.34;1696403;84;21101;-79
2021/10/11 03:04:06;;;;;;;30.70;20.17;;;;;;;3.17;75.35;101978.50;1696315;83;22433;-79
2021/10/11 03:06:36;;;;;;;30.32;20.57;;;;;;;3.15;75.44;101977.08;1696147;83;21100;-79
2021/10/11 03:09:02;;;;;;;29.07;19.05;;;;;;;3.14;75.53;101979.20;1696216;83;21176;-79
2021/10/11 03:11:28;;;;;;;30.50;19.45;;;;;;;3.12;75.58;101971.67;1696357;84;21165;-79
2021/10/11 03:13:55;;;;;;;28.83;18.57;;;;;;;3.13;75.69;101970.86;1696416;83;21571;-79
2021/10/11 03:16:22;;;;;;;31.97;19.27;;;;;;;3.15;75.67;101962.77;1696224;82;21923;-79
2021/10/11 03:18:50;;;;;;;26.23;18.40;;;;;;;3.15;75.60;101953.67;1695668;84;21599;-79
2021/10/11 03:21:18;;;;;;;30.48;18.42;;;;;;;3.13;75.53;101950.05;1695827;84;21160;-79
2021/10/11 03:23:52;;;;;;;32.13;18.07;;;;;;;3.09;75.40;101948.02;1695853;84;21101;-79
2021/10/11 03:26:18;;;;;;;28.20;18.75;;;;;;;3.07;75.52;101937.90;1695871;84;21590;-78
2021/10/11 03:28:45;;;;;;;34.10;20.05;;;;;;;3.03;75.44;101929.36;1687155;84;21882;-79
2021/10/11 03:31:12;;;;;;;37.30;22.55;;;;;;;2.99;75.46;101920.42;1695636;83;21081;-79
2021/10/11 03:33:39;;;;;;;37.20;21.70;;;;;;;2.97;75.55;101915.91;1695821;83;21109;-79
2021/10/11 03:36:06;;;;;;;37.67;22.60;;;;;;;2.97;75.65;101905.10;1696024;83;21560;-79
2021/10/11 03:38:32;;;;;;;41.18;22.40;;;;;;;2.98;75.70;101908.60;1696017;83;21182;-79
2021/10/11 03:40:59;;;;;;;34.43;20.55;;;;;;;2.97;75.71;101903.80;1683610;85;21756;-79
2021/10/11 03:43:26;;;;;;;37.00;20.02;;;;;;;2.98;75.77;101905.59;1674508;85;22251;-79
2021/10/11 03:45:55;;;;;;;38.33;21.87;;;;;;;3.01;75.87;101895.84;1680973;84;21066;-79
2021/10/11 03:48:22;;;;;;;37.35;22.22;;;;;;;3.05;75.96;101895.27;1646447;87;21120;-79
2021/10/11 03:50:49;;;;;;;36.55;20.23;;;;;;;3.11;76.02;101892.70;1652930;86;21616;-79
2021/10/11 03:53:17;;;;;;;33.13;21.45;;;;;;;3.19;76.14;101891.06;1640831;85;21224;-82
2021/10/11 03:55:45;;;;;;;35.10;21.65;;;;;;;3.27;76.17;101882.14;1609093;87;21109;-82
2021/10/11 03:58:15;;;;;;;38.08;23.55;;;;;;;3.36;76.19;101875.00;1669074;85;21050;-83
2021/10/11 04:00:41;;;;;;;39.15;22.93;;;;;;;3.42;76.17;101879.33;1695801;83;21078;-81
2021/10/11 04:03:09;;;;;;;37.38;21.77;;;;;;;3.52;76.16;101866.98;1666614;86;21079;-81
2021/10/11 04:05:36;;;;;;;42.85;23.20;;;;;;;3.60;76.12;101861.91;1666576;86;22577;-79
2021/10/11 04:08:10;;;;;;;34.27;22.95;;;;;;;3.66;76.07;101864.56;1695788;84;21085;-81
2021/10/11 04:10:36;;;;;;;33.83;22.25;;;;;;;3.73;75.96;101864.58;1665372;85;21074;-80
2021/10/11 04:13:05;;;;;;;34.70;22.05;;;;;;;3.76;75.81;101862.20;1665763;84;21389;-79
2021/10/11 04:15:29;;;;;;;42.73;23.42;;;;;;;3.80;75.77;101864.22;1665271;85;21181;-80
2021/10/11 04:17:56;;;;;;;35.55;23.15;;;;;;;3.82;75.68;101861.31;1691286;83;21987;-81
2021/10/11 04:20:23;;;;;;;33.50;22.45;;;;;;;3.85;75.66;101854.14;1708257;83;21080;-80
2021/10/11 04:22:50;;;;;;;40.03;23.22;;;;;;;3.87;75.56;101857.75;1708798;83;21132;-82
2021/10/11 04:25:17;;;;;;;37.50;21.90;;;;;;;3.87;75.49;101856.45;1708774;83;21649;-82
2021/10/11 04:27:47;;;;;;;35.52;21.90;;;;;;;3.86;75.43;101849.01;1709051;83;21240;-82
2021/10/11 04:30:13;;;;;;;36.28;21.48;;;;;;;3.83;75.33;101844.91;1709030;83;22619;-85
2021/10/11 04:32:44;;;;;;;36.70;22.10;;;;;;;3.78;75.26;101840.17;1709040;83;21027;-85
2021/10/11 04:35:09;;;;;;;34.30;22.60;;;;;;;3.71;75.18;101845.34;1708277;83;21088;-82
2021/10/11 04:37:42;;;;;;;42.53;25.80;;;;;;;3.66;75.24;101836.30;1707839;83;21594;-86
2021/10/11 04:40:10;;;;;;;44.20;27.05;;;;;;;3.62;75.23;101832.97;1709160;83;21610;-81
2021/10/11 04:42:39;;;;;;;49.03;29.60;;;;;;;3.56;75.19;101825.63;1709122;83;21753;-81
2021/10/11 04:45:09;;;;;;;48.70;28.23;;;;;;;3.52;75.29;101822.31;1708866;83;21053;-82
2021/10/11 04:47:35;;;;;;;45.25;27.22;;;;;;;3.52;75.33;101821.42;1704810;83;21092;-82
2021/10/11 04:50:02;;;;;;;44.77;28.15;;;;;;;3.49;75.42;101819.11;1695817;83;21540;-82
2021/10/11 04:52:29;;;;;;;53.38;27.70;;;;;;;3.50;75.54;101818.70;1679204;83;21603;-80
2021/10/11 04:54:56;;;;;;;44.73;26.85;;;;;;;3.53;75.61;101816.70;1673578;85;22012;-79
2021/10/11 04:57:23;;;;;;;42.98;26.40;;;;;;;3.55;75.63;101821.24;1673492;85;21117;-80
2021/10/11 04:59:51;;;;;;;45.43;26.55;;;;;;;3.60;75.62;101820.25;1673620;85;21105;-82
2021/10/11 05:02:18;;;;;;;44.73;25.70;;;;;;;3.62;75.57;101813.08;1673523;85;21088;-81
2021/10/11 05:04:45;;;;;;;43.15;25.15;;;;;;;3.67;75.55;101809.06;1673510;85;21097;-79
2021/10/11 05:07:11;;;;;;;45.38;25.92;;;;;;;3.75;75.55;101808.70;1673703;85;21760;-80
2021/10/11 05:09:38;;;;;;;40.05;24.30;;;;;;;3.78;75.46;101799.41;1673539;85;21611;-79
2021/10/11 05:12:06;;;;;;;44.93;26.20;;;;;;;3.86;75.48;101799.93;1644803;85;21113;-80
2021/10/11 05:14:32;;;;;;;45.50;25.75;;;;;;;3.94;75.45;101805.66;1673690;85;21120;-79
2021/10/11 05:16:59;;;;;;;44.25;26.35;;;;;;;4.00;75.42;101800.90;1673719;84;21634;-79
2021/10/11 05:19:27;;;;;;;40.38;26.80;;;;;;;4.07;75.39;101800.11;1694057;84;21807;-78
2021/10/11 05:21:54;;;;;;;45.52;24.25;;;;;;;4.14;75.28;101798.81;1694245;84;21087;-78
2021/10/11 05:24:23;;;;;;;38.60;23.60;;;;;;;4.22;75.25;101795.41;1693813;84;21072;-78
2021/10/11 05:26:53;;;;;;;40.73;23.42;;;;;;;4.28;75.15;101786.32;1694788;84;21107;-86
2021/10/11 05:29:22;;;;;;;38.42;22.67;;;;;;;4.34;75.12;101792.34;1694602;84;21109;-79
2021/10/11 05:31:50;;;;;;;40.12;23.27;;;;;;;4.43;75.10;101790.73;1670682;84;22522;-79
2021/10/11 05:34:16;;;;;;;41.42;24.35;;;;;;;4.50;75.07;101787.73;1639401;87;21137;-79
2021/10/11 05:36:43;;;;;;;36.88;23.95;;;;;;;4.55;75.05;101786.34;1669509;85;21172;-79
2021/10/11 05:39:10;;;;;;;39.08;23.32;;;;;;;4.63;74.99;101781.63;1667638;86;21519;-80
2021/10/11 05:41:36;;;;;;;35.17;22.05;;;;;;;4.71;74.90;101782.12;1667529;86;21105;-79
2021/10/11 05:44:03;;;;;;;37.93;23.00;;;;;;;4.77;74.81;101773.41;1639449;87;21779;-80
2021/10/11 05:46:30;;;;;;;37.70;22.48;;;;;;;4.82;74.68;101769.00;1670067;85;21145;-79
2021/10/11 05:48:57;;;;;;;33.70;20.82;;;;;;;4.90;74.66;101772.47;1639326;87;22073;-79
2021/10/11 05:51:24;;;;;;;33.50;19.77;;;;;;;4.95;74.60;101765.44;1667654;85;21113;-80
2021/10/11 05:53:50;;;;;;;33.15;21.05;;;;;;;5.06;74.58;101766.13;1667632;86;21174;-80
2021/10/11 05:56:17;;;;;;;37.73;22.13;;;;;;;5.16;74.54;101755.87;1667639;86;21770;-79
2021/10/11 05:58:44;;;;;;;34.83;21.40;;;;;;;5.28;74.49;101750.53;1639456;87;22282;-80
2021/10/11 06:01:10;;;;;;;34.25;22.58;;;;;;;5.39;74.41;101746.88;1639631;87;21062;-79
2021/10/11 06:03:37;;;;;;;35.83;23.15;;;;;;;5.49;74.26;101750.55;1670112;85;21663;-80
2021/10/11 06:06:04;;;;;;;39.05;23.98;;;;;;;5.62;74.20;101757.02;1669788;85;21538;-80
2021/10/11 06:08:31;;;;;;;37.93;24.55;;;;;;;5.74;74.12;101743.78;1669425;85;21831;-79
2021/10/11 06:10:57;;;;;;;39.25;25.08;;;;;;;5.88;73.99;101741.13;1669852;85;21082;-79
2021/10/11 06:13:24;;;;;;;35.33;25.12;;;;;;;6.01;73.79;101740.67;1670406;85;21575;-79
2021/10/11 06:15:51;;;;;;;40.20;24.45;;;;;;;6.11;73.58;101740.80;1667512;86;21590;-79
2021/10/11 06:18:17;;;;;;;41.92;25.15;;;;;;;6.21;73.45;101734.39;1665543;85;21086;-78
2021/10/11 06:20:44;;;;;;;35.50;24.10;;;;;;;6.34;73.37;101727.75;1633659;87;21832;-79
2021/10/11 06:23:13;;;;;;;39.63;24.75;;;;;;;6.48;73.24;101732.48;1619595;88;21050;-79
2021/10/11 06:25:44;;;;;;;38.63;24.60;;;;;;;6.58;72.92;101723.44;1619808;88;21668;-79
2021/10/11 06:28:11;;;;;;;35.17;24.37;;;;;;;6.68;72.80;101724.47;1619057;88;21165;-79
2021/10/11 06:30:38;;;;;;;38.98;24.77;;;;;;;6.79;72.64;101724.67;1619651;88;21047;-79
2021/10/11 06:33:04;;;;;;;40.50;25.57;;;;;;;6.88;72.51;101729.91;1619751;88;22633;-79
2021/10/11 06:35:31;;;;;;;39.67;25.45;;;;;;;6.90;72.21;101723.94;1619527;88;21125;-79
2021/10/11 06:37:58;;;;;;;40.70;25.43;;;;;;;6.90;71.95;101725.66;1619663;88;21105;-78
2021/10/11 06:40:24;;;;;;;38.15;25.72;;;;;;;6.86;71.78;101719.34;1619605;88;21113;-79
2021/10/11 06:42:51;;;;;;;38.42;25.57;;;;;;;6.83;71.62;101715.66;1619583;88;21677;-79
2021/10/11 06:45:20;;;;;;;40.83;24.63;;;;;;;6.75;71.49;101712.20;1591631;88;21303;-79
2021/10/11 06:47:47;;;;;;;43.28;25.35;;;;;;;6.70;71.45;101711.06;1619593;88;21121;-79
2021/10/11 06:50:14;;;;;;;40.30;24.15;;;;;;;6.68;71.45;101707.85;1619555;88;21790;-79
2021/10/11 06:52:41;;;;;;;47.60;31.80;;;;;;;6.67;71.47;101706.96;1619532;88;21121;-79
2021/10/11 06:55:08;;;;;;;49.03;31.62;;;;;;;6.72;71.46;101708.13;1619584;88;21110;-79
2021/10/11 06:57:34;;;;;;;56.88;35.48;;;;;;;6.77;71.46;101706.64;1619554;88;21785;-79
2021/10/11 07:00:01;;;;;;;85.40;51.42;;;;;;;6.83;71.35;101703.47;1619515;88;21038;-80
2021/10/11 07:02:29;;;;;;;86.80;49.15;;;;;;;6.89;71.28;101702.91;1619644;88;21590;-79
2021/10/11 07:05:04;;;;;;;84.45;47.23;;;;;;;6.95;71.24;101701.53;1619529;88;21214;-80
2021/10/11 07:07:29;;;;;;;43.13;29.65;;;;;;;7.04;71.22;101703.77;1618757;88;21116;-80
2021/10/11 07:09:55;;;;;;;41.90;26.27;;;;;;;7.11;71.05;101700.64;1619679;88;21764;-79
2021/10/11 07:12:22;;;;;;;43.87;26.80;;;;;;;7.18;71.06;101693.61;1591963;88;21026;-80
2021/10/11 07:14:50;;;;;;;40.63;25.43;;;;;;;7.28;70.97;101691.49;1619558;88;21124;-80
2021/10/11 07:17:17;;;;;;;42.35;25.40;;;;;;;7.38;70.82;101684.22;1619517;88;21105;-80
2021/10/11 07:19:46;;;;;;;42.53;24.57;;;;;;;7.47;70.77;101668.09;1636899;87;21074;-80
2021/10/11 07:22:17;;;;;;;38.95;25.43;;;;;;;7.57;70.75;101665.53;1639593;87;21877;-81
2021/10/11 07:24:45;;;;;;;52.27;32.78;;;;;;;7.70;70.49;101674.94;1670028;85;21128;-80
2021/10/11 07:27:12;;;;;;;44.58;28.27;;;;;;;7.77;70.30;101684.50;1667661;86;21137;-81
2021/10/11 07:29:38;;;;;;;45.67;24.77;;;;;;;7.85;70.21;101675.71;1667509;86;21110;-80
2021/10/11 07:32:06;;;;;;;39.18;24.72;;;;;;;7.97;70.17;101659.69;1667873;86;21592;-80
2021/10/11 07:34:33;;;;;;;44.98;26.25;;;;;;;8.05;69.98;101657.06;1639812;87;21764;-81
2021/10/11 07:37:00;;;;;;;39.70;24.40;;;;;;;8.10;69.66;101666.45;1667806;86;21097;-81
2021/10/11 07:39:27;;;;;;;39.20;24.95;;;;;;;8.13;69.48;101662.68;1639639;87;21081;-81
2021/10/11 07:41:53;;;;;;;44.58;26.20;;;;;;;8.16;69.36;101662.81;1667799;86;21620;-81
2021/10/11 07:44:20;;;;;;;51.20;25.48;;;;;;;8.22;69.22;101663.52;1639785;87;21133;-80
2021/10/11 07:46:53;;;;;;;37.85;25.40;;;;;;;8.27;69.10;101662.92;1667663;86;22589;-81
2021/10/11 07:49:15;;;;;;;38.48;25.92;;;;;;;8.35;69.06;101669.85;1666041;84;21086;-81
2021/10/11 07:51:42;;;;;;;39.53;24.05;;;;;;;8.42;68.97;101661.92;1667786;86;21141;-81
2021/10/11 07:54:09;;;;;;;39.45;25.32;;;;;;;8.51;68.90;101657.12;1667776;86;21038;-80
2021/10/11 07:56:37;;;;;;;40.12;26.35;;;;;;;8.63;68.79;101660.73;1639783;87;21110;-81
2021/10/11 07:59:04;;;;;;;37.95;24.10;;;;;;;8.74;68.58;101659.09;1670203;85;21669;-81
2021/10/11 08:01:31;;;;;;;43.83;26.93;;;;;;;8.84;68.36;101653.87;1670092;85;21198;-81
2021/10/11 08:03:57;;;;;;;39.23;25.52;;;;;;;8.92;68.20;101655.55;1670034;85;21739;-81
2021/10/11 08:06:26;;;;;;;40.35;26.65;;;;;;;9.01;68.09;101653.73;1669638;85;21614;-81
2021/10/11 08:08:52;;;;;;;36.53;25.25;;;;;;;9.10;68.02;101650.22;1670237;85;21088;-81
2021/10/11 08:11:19;;;;;;;38.23;25.57;;;;;;;9.17;67.83;101650.98;1639539;87;21768;-80
2021/10/11 08:13:46;;;;;;;35.00;24.43;;;;;;;9.25;67.82;101644.76;1669937;85;21141;-80
2021/10/11 08:16:13;;;;;;;34.65;24.72;;;;;;;9.31;67.62;101639.38;1639754;87;22297;-81
2021/10/11 08:18:39;;;;;;;37.28;24.18;;;;;;;9.39;67.56;101636.20;1665988;85;21181;-80
2021/10/11 08:21:06;;;;;;;37.15;25.15;;;;;;;9.48;67.34;101628.72;1645097;85;21169;-81
2021/10/11 08:23:39;;;;;;;34.75;23.60;;;;;;;9.58;67.36;101631.31;1644751;87;22811;-81
2021/10/11 08:26:05;;;;;;;42.03;24.20;;;;;;;9.73;67.18;101628.91;1644787;86;21703;-81
2021/10/11 08:28:31;;;;;;;35.30;24.65;;;;;;;9.84;67.00;101637.27;1607366;87;21106;-80
2021/10/11 08:31:00;;;;;;;34.55;24.43;;;;;;;9.92;66.86;101633.21;1618883;88;21345;-81
2021/10/11 08:33:26;;;;;;;37.42;23.92;;;;;;;10.04;66.71;101630.22;1619423;88;21132;-81
2021/10/11 08:35:53;;;;;;;35.65;23.35;;;;;;;10.11;66.68;101626.97;1619439;88;22111;-81
2021/10/11 08:38:20;;;;;;;32.48;23.47;;;;;;;10.19;66.37;101623.37;1619423;88;21556;-81
2021/10/11 08:40:48;;;;;;;35.83;23.38;;;;;;;10.27;66.30;101619.30;1619379;88;21109;-81
2021/10/11 08:43:16;;;;;;;38.50;24.00;;;;;;;10.33;66.04;101616.48;1592417;88;21090;-81
2021/10/11 08:45:45;;;;;;;35.60;23.90;;;;;;;10.35;65.86;101624.91;1619451;88;21077;-81
2021/10/11 08:48:11;;;;;;;33.92;25.25;;;;;;;10.35;65.59;101628.84;1619255;88;21754;-81
2021/10/11 08:50:38;;;;;;;36.93;23.20;;;;;;;10.39;65.73;101628.55;1619265;88;21519;-80
2021/10/11 08:53:08;;;;;;;34.60;22.90;;;;;;;10.48;65.77;101619.71;1619199;88;21105;-79
2021/10/11 08:55:33;;;;;;;34.60;23.85;;;;;;;10.57;65.59;101620.08;1619021;88;21101;-79
2021/10/11 08:58:03;;;;;;;30.90;22.60;;;;;;;10.67;65.41;101611.67;1619581;88;21125;-80
2021/10/11 09:00:35;;;;;;;33.42;22.87;;;;;;;10.79;65.33;101609.03;1619446;88;21780;-79
2021/10/11 09:03:02;;;;;;;38.60;22.13;;;;;;;10.91;65.34;101599.40;1619377;88;21093;-79
2021/10/11 09:05:37;;;;;;;35.13;21.93;;;;;;;11.01;65.12;101591.87;1619408;88;21113;-79
2021/10/11 09:08:13;;;;;;;38.00;23.05;;;;;;;11.11;64.93;101587.83;1619481;88;21202;-79
2021/10/11 09:11:00;;;;;;;40.23;22.48;;;;;;;11.18;64.59;101585.89;1619274;88;21140;-79
2021/10/11 09:13:43;;;;;;;34.53;21.05;;;;;;;11.28;64.50;101585.83;1619379;88;21792;-79
2021/10/11 09:16:33;;;;;;;31.33;21.57;;;;;;;11.42;64.33;101577.96;1619401;88;21642;-79
2021/10/11 09:19:24;;;;;;;30.17;21.02;;;;;;;11.54;64.06;101578.80;1636413;85;21625;-79
2021/10/11 09:21:48;;;;;;;35.70;20.70;;;;;;;11.63;63.77;101575.59;1677329;85;21161;-80
2021/10/11 09:24:20;;;;;;;46.90;33.15;;;;;;;11.73;63.66;101589.97;1652796;85;21081;-80
2021/10/11 09:26:53;;;;;;;33.98;24.23;;;;;;;11.84;63.61;101584.23;1678194;85;22438;-80
2021/10/11 09:29:35;;;;;;;35.30;24.70;;;;;;;11.92;63.20;101582.28;1652052;86;21168;-79
2021/10/11 09:32:09;;;;;;;42.95;29.35;;;;;;;11.95;62.87;101579.75;1678618;85;21038;-80
2021/10/11 09:34:41;;;;;;;69.75;26.35;;;;;;;11.89;62.46;101579.09;1677819;85;21515;-80
2021/10/11 09:37:10;;;;;;;49.53;27.45;;;;;;;11.86;62.55;101574.62;1678145;85;21050;-79
2021/10/11 09:39:38;;;;;;;44.67;27.93;;;;;;;11.93;62.35;101573.53;1678383;85;21817;-80
2021/10/11 09:42:11;;;;;;;37.28;24.55;;;;;;;11.97;62.24;101565.75;1678371;85;21098;-80
2021/10/11 09:44:38;;;;;;;35.38;22.10;;;;;;;11.99;61.94;101557.89;1678690;85;21572;-80
2021/10/11 09:47:10;;;;;;;33.45;19.57;;;;;;;12.04;61.50;101562.47;1625821;86;21116;-80
2021/10/11 09:49:38;;;;;;;31.23;20.00;;;;;;;12.11;61.28;101554.34;1678359;85;21085;-80
2021/10/11 09:52:06;;;;;;;32.20;19.67;;;;;;;12.14;61.28;101549.57;1651838;86;21867;-80
2021/10/11 09:54:32;;;;;;;35.65;20.48;;;;;;;12.13;60.84;101557.92;1678075;85;21081;-80
2021/10/11 09:56:59;;;;;;;40.08;23.05;;;;;;;12.12;60.77;101561.39;1652050;86;21120;-80
2021/10/11 09:59:26;;;;;;;33.35;19.77;;;;;;;12.10;60.50;101568.80;1677876;85;21089;-80
2021/10/11 10:01:53;;;;;;;33.18;20.15;;;;;;;12.10;60.51;101578.03;1678040;85;21097;-80
2021/10/11 10:04:31;;;;;;;31.10;20.00;;;;;;;12.12;60.36;101569.73;1651914;86;21832;-80
2021/10/11 10:07:01;;;;;;;28.50;19.75;;;;;;;12.16;60.34;101559.75;1677762;84;21668;-80
2021/10/11 10:09:28;;;;;;;31.40;20.35;;;;;;;12.21;60.19;101553.77;1677938;85;21450;-80
2021/10/11 10:11:55;;;;;;;30.00;19.27;;;;;;;12.27;60.32;101549.53;1651909;86;21626;-80
2021/10/11 10:14:24;;;;;;;31.82;21.00;;;;;;;12.34;60.28;101539.64;1678016;85;21131;-80
2021/10/11 10:16:52;;;;;;;34.08;20.27;;;;;;;12.37;59.97;101522.15;1678267;85;21786;-80
2021/10/11 10:19:21;;;;;;;27.48;20.02;;;;;;;12.35;59.78;101511.05;1667754;85;21109;-80
2021/10/11 10:21:48;;;;;;;33.23;19.35;;;;;;;12.34;59.73;101504.88;1642761;86;21101;-80
2021/10/11 10:24:26;;;;;;;29.05;19.67;;;;;;;12.36;59.72;101508.89;1632941;87;21118;-80
2021/10/11 10:27:08;;;;;;;30.12;18.82;;;;;;;12.35;59.57;101500.48;1619164;88;21121;-80
2021/10/11 10:29:47;;;;;;;26.00;18.42;;;;;;;12.32;59.41;101503.95;1591657;88;21851;-79
2021/10/11 10:32:16;;;;;;;28.23;19.37;;;;;;;12.23;59.25;101500.59;1619242;88;21157;-79
2021/10/11 10:34:49;;;;;;;30.92;18.85;;;;;;;12.13;59.18;101501.18;1618644;88;21117;-80
2021/10/11 10:37:15;;;;;;;25.75;18.05;;;;;;;11.99;59.26;101487.97;1617553;88;21106;-80
2021/10/11 10:39:47;;;;;;;28.95;17.55;;;;;;;11.90;59.22;101492.56;1619439;88;21153;-80
2021/10/11 10:42:28;;;;;;;26.82;18.40;;;;;;;11.74;59.09;101492.88;1619259;88;22614;-79
2021/10/11 10:44:58;;;;;;;35.03;19.50;;;;;;;11.57;59.20;101487.06;1618511;88;21125;-80
2021/10/11 10:47:41;;;;;;;27.07;18.00;;;;;;;11.44;59.26;101487.07;1619224;88;21141;-79
2021/10/11 10:50:17;;;;;;;29.57;17.42;;;;;;;11.37;59.42;101491.66;1619328;88;21101;-79
2021/10/11 10:52:53;;;;;;;29.02;17.40;;;;;;;11.32;59.41;101481.37;1619830;88;21611;-79
2021/10/11 10:55:20;;;;;;;27.35;16.82;;;;;;;11.32;59.58;101462.92;1619501;88;22456;-79
2021/10/11 10:57:46;;;;;;;30.00;18.02;;;;;;;11.32;59.43;101470.83;1619610;88;21153;-79
2021/10/11 11:00:18;;;;;;;28.52;17.73;;;;;;;11.31;59.36;101467.73;1619822;88;21058;-79
2021/10/11 11:02:50;;;;;;;30.05;18.70;;;;;;;11.29;59.24;101465.94;1619678;88;21165;-79
2021/10/11 11:05:18;;;;;;;30.25;17.52;;;;;;;11.29;59.29;101474.27;1619741;88;21122;-79
2021/10/11 11:07:47;;;;;;;34.58;19.73;;;;;;;11.27;59.09;101468.94;1619653;88;21777;-79
2021/10/11 11:10:17;;;;;;;28.30;18.92;;;;;;;11.27;59.09;101462.78;1619901;88;21524;-79
2021/10/11 11:12:56;;;;;;;32.50;20.20;;;;;;;11.22;59.04;101457.77;1619008;88;21548;-79
2021/10/11 11:15:29;;;;;;;31.05;19.67;;;;;;;11.22;59.16;101450.78;1616851;88;21536;-79
2021/10/11 11:17:58;;;;;;;32.27;19.53;;;;;;;11.26;59.12;101452.67;1620013;88;21116;-79